sensor_id;sensor_type;location;lat;lon;timestamp;P1;durP1;ratioP1;P2;durP2;ratioP2
1024;SDS011;501;48.214;11.350;2022-12-07T00:03:45;10.00;;;7.57;;
1024;SDS011;501;48.214;11.350;2022-12-07T00:06:13;8.77;;;7.80;;
1024;SDS011;501;48.214;11.350;2022-12-07T00:08:39;11.60;;;7.80;;
1024;SDS011;501;48.214;11.350;2022-12-07T00:11:15;9.63;;;7.70;;
1024;SDS011;501;48.214;11.350;2022-12-07T00:13:45;10.27;;;8.30;;
1024;SDS011;501;48.214;11.350;2022-12-07T00:16:15;11.93;;;7.40;;
1024;SDS011;501;48.214;11.350;2022-12-07T00:18:43;13.00;;;8.27;;
1024;SDS011;501;48.214;11.350;2022-12-07T00:21:14;9.90;;;7.30;;
1024;SDS011;501;48.214;11.350;2022-12-07T00:23:41;8.97;;;7.17;;
1024;SDS011;501;48.214;11.350;2022-12-07T00:26:09;9.93;;;7.10;;
1024;SDS011;501;48.214;11.350;2022-12-07T00:28:50;9.43;;;7.30;;
1024;SDS011;501;48.214;11.350;2022-12-07T00:31:18;10.80;;;8.23;;
1024;SDS011;501;48.214;11.350;2022-12-07T00:33:45;12.53;;;8.03;;
1024;SDS011;501;48.214;11.350;2022-12-07T00:36:13;10.43;;;7.20;;
1024;SDS011;501;48.214;11.350;2022-12-07T00:38:44;9.60;;;7.50;;
1024;SDS011;501;48.214;11.350;2022-12-07T00:41:20;9.33;;;7.43;;
1024;SDS011;501;48.214;11.350;2022-12-07T00:43:47;10.80;;;7.30;;
1024;SDS011;501;48.214;11.350;2022-12-07T00:46:13;11.23;;;7.40;;
1024;SDS011;501;48.214;11.350;2022-12-07T00:48:43;9.30;;;6.70;;
1024;SDS011;501;48.214;11.350;2022-12-07T00:51:10;13.10;;;8.00;;
1024;SDS011;501;48.214;11.350;2022-12-07T00:53:37;10.10;;;7.77;;
1024;SDS011;501;48.214;11.350;2022-12-07T00:58:33;9.43;;;7.37;;
1024;SDS011;501;48.214;11.350;2022-12-07T01:01:02;11.50;;;8.23;;
1024;SDS011;501;48.214;11.350;2022-12-07T01:03:29;8.87;;;7.40;;
1024;SDS011;501;48.214;11.350;2022-12-07T01:05:55;8.70;;;6.93;;
1024;SDS011;501;48.214;11.350;2022-12-07T01:08:22;10.97;;;7.80;;
1024;SDS011;501;48.214;11.350;2022-12-07T01:10:56;8.40;;;7.37;;
1024;SDS011;501;48.214;11.350;2022-12-07T01:13:26;10.80;;;7.90;;
1024;SDS011;501;48.214;11.350;2022-12-07T01:15:55;10.20;;;7.67;;
1024;SDS011;501;48.214;11.350;2022-12-07T01:18:22;11.97;;;8.07;;
1024;SDS011;501;48.214;11.350;2022-12-07T01:20:56;10.10;;;7.40;;
1024;SDS011;501;48.214;11.350;2022-12-07T01:23:23;10.40;;;7.10;;
1024;SDS011;501;48.214;11.350;2022-12-07T01:25:59;10.07;;;8.60;;
1024;SDS011;501;48.214;11.350;2022-12-07T01:28:26;11.47;;;7.30;;
1024;SDS011;501;48.214;11.350;2022-12-07T01:30:59;10.10;;;7.93;;
1024;SDS011;501;48.214;11.350;2022-12-07T01:33:34;9.17;;;7.73;;
1024;SDS011;501;48.214;11.350;2022-12-07T01:36:02;10.30;;;7.40;;
1024;SDS011;501;48.214;11.350;2022-12-07T01:38:31;9.20;;;7.37;;
1024;SDS011;501;48.214;11.350;2022-12-07T01:40:58;14.90;;;8.80;;
1024;SDS011;501;48.214;11.350;2022-12-07T01:43:25;9.90;;;8.10;;
1024;SDS011;501;48.214;11.350;2022-12-07T01:45:52;13.03;;;9.13;;
1024;SDS011;501;48.214;11.350;2022-12-07T01:48:19;11.13;;;8.43;;
1024;SDS011;501;48.214;11.350;2022-12-07T01:50:51;9.47;;;7.83;;
1024;SDS011;501;48.214;11.350;2022-12-07T01:53:18;11.70;;;8.63;;
1024;SDS011;501;48.214;11.350;2022-12-07T01:55:46;12.00;;;8.30;;
1024;SDS011;501;48.214;11.350;2022-12-07T01:58:16;10.40;;;8.10;;
1024;SDS011;501;48.214;11.350;2022-12-07T02:00:42;10.33;;;8.40;;
1024;SDS011;501;48.214;11.350;2022-12-07T02:03:27;12.23;;;9.07;;
1024;SDS011;501;48.214;11.350;2022-12-07T02:05:57;10.47;;;7.20;;
1024;SDS011;501;48.214;11.350;2022-12-07T02:08:25;9.47;;;8.10;;
1024;SDS011;501;48.214;11.350;2022-12-07T02:10:51;10.03;;;7.67;;
1024;SDS011;501;48.214;11.350;2022-12-07T02:13:21;9.70;;;7.77;;
1024;SDS011;501;48.214;11.350;2022-12-07T02:21:18;13.50;;;8.67;;
1024;SDS011;501;48.214;11.350;2022-12-07T02:29:29;11.83;;;8.93;;
1024;SDS011;501;48.214;11.350;2022-12-07T02:32:19;11.70;;;8.17;;
1024;SDS011;501;48.214;11.350;2022-12-07T02:35:03;12.47;;;8.30;;
1024;SDS011;501;48.214;11.350;2022-12-07T02:40:36;9.47;;;8.33;;
1024;SDS011;501;48.214;11.350;2022-12-07T02:43:12;11.60;;;8.17;;
1024;SDS011;501;48.214;11.350;2022-12-07T02:45:46;12.37;;;8.10;;
1024;SDS011;501;48.214;11.350;2022-12-07T02:48:13;10.60;;;8.63;;
1024;SDS011;501;48.214;11.350;2022-12-07T02:50:48;9.90;;;8.37;;
1024;SDS011;501;48.214;11.350;2022-12-07T02:56:11;10.83;;;8.40;;
1024;SDS011;501;48.214;11.350;2022-12-07T03:07:56;10.90;;;8.50;;
1024;SDS011;501;48.214;11.350;2022-12-07T03:10:06;10.73;;;8.17;;
1024;SDS011;501;48.214;11.350;2022-12-07T03:12:57;10.10;;;8.00;;
1024;SDS011;501;48.214;11.350;2022-12-07T03:15:39;11.70;;;8.20;;
1024;SDS011;501;48.214;11.350;2022-12-07T03:18:15;10.90;;;8.20;;
1024;SDS011;501;48.214;11.350;2022-12-07T03:20:45;10.53;;;7.53;;
1024;SDS011;501;48.214;11.350;2022-12-07T03:23:15;11.57;;;7.90;;
1024;SDS011;501;48.214;11.350;2022-12-07T03:25:44;11.40;;;7.57;;
1024;SDS011;501;48.214;11.350;2022-12-07T03:28:14;8.23;;;6.87;;
1024;SDS011;501;48.214;11.350;2022-12-07T03:30:44;9.80;;;8.37;;
1024;SDS011;501;48.214;11.350;2022-12-07T03:34:01;12.00;;;8.20;;
1024;SDS011;501;48.214;11.350;2022-12-07T03:41:54;12.07;;;8.73;;
1024;SDS011;501;48.214;11.350;2022-12-07T03:44:21;13.87;;;9.43;;
1024;SDS011;501;48.214;11.350;2022-12-07T03:46:54;10.40;;;7.83;;
1024;SDS011;501;48.214;11.350;2022-12-07T03:49:45;10.10;;;8.50;;
1024;SDS011;501;48.214;11.350;2022-12-07T03:52:22;10.43;;;8.73;;
1024;SDS011;501;48.214;11.350;2022-12-07T03:55:24;12.40;;;8.40;;
1024;SDS011;501;48.214;11.350;2022-12-07T03:57:58;12.03;;;8.47;;
1024;SDS011;501;48.214;11.350;2022-12-07T04:00:27;14.93;;;8.67;;
1024;SDS011;501;48.214;11.350;2022-12-07T04:02:54;12.60;;;9.00;;
1024;SDS011;501;48.214;11.350;2022-12-07T04:05:20;12.87;;;9.30;;
1024;SDS011;501;48.214;11.350;2022-12-07T04:07:46;9.60;;;8.07;;
1024;SDS011;501;48.214;11.350;2022-12-07T04:10:11;11.20;;;8.70;;
1024;SDS011;501;48.214;11.350;2022-12-07T04:12:37;13.70;;;8.70;;
1024;SDS011;501;48.214;11.350;2022-12-07T04:15:03;10.30;;;8.00;;
1024;SDS011;501;48.214;11.350;2022-12-07T04:17:29;10.97;;;7.90;;
1024;SDS011;501;48.214;11.350;2022-12-07T04:19:55;12.90;;;9.40;;
1024;SDS011;501;48.214;11.350;2022-12-07T04:22:21;10.70;;;7.53;;
1024;SDS011;501;48.214;11.350;2022-12-07T04:24:46;11.70;;;9.23;;
1024;SDS011;501;48.214;11.350;2022-12-07T04:27:12;10.70;;;8.80;;
1024;SDS011;501;48.214;11.350;2022-12-07T04:29:37;10.63;;;8.23;;
1024;SDS011;501;48.214;11.350;2022-12-07T04:32:03;11.00;;;8.37;;
1024;SDS011;501;48.214;11.350;2022-12-07T04:34:29;12.03;;;8.57;;
1024;SDS011;501;48.214;11.350;2022-12-07T04:36:54;11.20;;;7.70;;
1024;SDS011;501;48.214;11.350;2022-12-07T04:41:53;10.93;;;7.87;;
1024;SDS011;501;48.214;11.350;2022-12-07T04:44:23;11.43;;;8.40;;
1024;SDS011;501;48.214;11.350;2022-12-07T04:46:52;11.37;;;8.77;;
1024;SDS011;501;48.214;11.350;2022-12-07T04:49:19;12.83;;;9.13;;
1024;SDS011;501;48.214;11.350;2022-12-07T04:51:44;11.10;;;8.33;;
1024;SDS011;501;48.214;11.350;2022-12-07T04:54:11;11.13;;;8.07;;
1024;SDS011;501;48.214;11.350;2022-12-07T04:56:37;13.23;;;9.03;;
1024;SDS011;501;48.214;11.350;2022-12-07T04:59:03;12.23;;;8.60;;
1024;SDS011;501;48.214;11.350;2022-12-07T05:01:29;9.97;;;8.50;;
1024;SDS011;501;48.214;11.350;2022-12-07T05:03:55;10.30;;;7.87;;
1024;SDS011;501;48.214;11.350;2022-12-07T05:06:21;10.57;;;8.40;;
1024;SDS011;501;48.214;11.350;2022-12-07T05:08:46;12.20;;;9.50;;
1024;SDS011;501;48.214;11.350;2022-12-07T05:11:12;11.87;;;8.23;;
1024;SDS011;501;48.214;11.350;2022-12-07T05:13:57;11.33;;;8.43;;
1024;SDS011;501;48.214;11.350;2022-12-07T05:16:22;13.17;;;9.57;;
1024;SDS011;501;48.214;11.350;2022-12-07T05:18:48;11.60;;;8.93;;
1024;SDS011;501;48.214;11.350;2022-12-07T05:21:14;11.50;;;8.70;;
1024;SDS011;501;48.214;11.350;2022-12-07T05:23:39;11.67;;;9.13;;
1024;SDS011;501;48.214;11.350;2022-12-07T05:26:05;15.10;;;10.23;;
1024;SDS011;501;48.214;11.350;2022-12-07T05:28:30;9.53;;;8.53;;
1024;SDS011;501;48.214;11.350;2022-12-07T05:30:56;19.40;;;9.57;;
1024;SDS011;501;48.214;11.350;2022-12-07T05:33:22;13.83;;;9.30;;
1024;SDS011;501;48.214;11.350;2022-12-07T05:35:47;10.20;;;9.10;;
1024;SDS011;501;48.214;11.350;2022-12-07T05:38:13;11.77;;;9.37;;
1024;SDS011;501;48.214;11.350;2022-12-07T05:40:38;11.50;;;9.10;;
1024;SDS011;501;48.214;11.350;2022-12-07T05:43:04;14.03;;;10.13;;
1024;SDS011;501;48.214;11.350;2022-12-07T05:45:30;14.57;;;9.30;;
1024;SDS011;501;48.214;11.350;2022-12-07T05:47:55;10.83;;;8.43;;
1024;SDS011;501;48.214;11.350;2022-12-07T05:50:21;10.43;;;8.67;;
1024;SDS011;501;48.214;11.350;2022-12-07T05:52:46;12.37;;;9.43;;
1024;SDS011;501;48.214;11.350;2022-12-07T05:55:12;10.50;;;8.93;;
1024;SDS011;501;48.214;11.350;2022-12-07T05:57:38;12.83;;;9.73;;
1024;SDS011;501;48.214;11.350;2022-12-07T06:00:04;16.20;;;10.87;;
1024;SDS011;501;48.214;11.350;2022-12-07T06:02:30;11.43;;;9.00;;
1024;SDS011;501;48.214;11.350;2022-12-07T06:04:56;11.33;;;8.53;;
1024;SDS011;501;48.214;11.350;2022-12-07T06:07:21;13.30;;;9.40;;
1024;SDS011;501;48.214;11.350;2022-12-07T06:09:47;14.93;;;9.67;;
1024;SDS011;501;48.214;11.350;2022-12-07T06:12:13;13.00;;;9.77;;
1024;SDS011;501;48.214;11.350;2022-12-07T06:14:57;15.97;;;10.63;;
1024;SDS011;501;48.214;11.350;2022-12-07T06:17:23;14.87;;;9.60;;
1024;SDS011;501;48.214;11.350;2022-12-07T06:19:49;13.27;;;10.13;;
1024;SDS011;501;48.214;11.350;2022-12-07T06:22:15;15.73;;;11.17;;
1024;SDS011;501;48.214;11.350;2022-12-07T06:24:41;13.80;;;10.10;;
1024;SDS011;501;48.214;11.350;2022-12-07T06:27:07;15.87;;;10.90;;
1024;SDS011;501;48.214;11.350;2022-12-07T06:29:34;15.07;;;10.23;;
1024;SDS011;501;48.214;11.350;2022-12-07T06:32:02;15.50;;;10.33;;
1024;SDS011;501;48.214;11.350;2022-12-07T06:34:28;19.17;;;11.93;;
1024;SDS011;501;48.214;11.350;2022-12-07T06:36:54;15.40;;;11.10;;
1024;SDS011;501;48.214;11.350;2022-12-07T06:39:23;14.87;;;10.67;;
1024;SDS011;501;48.214;11.350;2022-12-07T06:41:50;16.57;;;11.07;;
1024;SDS011;501;48.214;11.350;2022-12-07T06:44:17;16.40;;;10.90;;
1024;SDS011;501;48.214;11.350;2022-12-07T06:46:43;14.90;;;10.47;;
1024;SDS011;501;48.214;11.350;2022-12-07T06:49:09;15.20;;;10.43;;
1024;SDS011;501;48.214;11.350;2022-12-07T06:51:35;15.77;;;10.50;;
1024;SDS011;501;48.214;11.350;2022-12-07T06:54:02;16.00;;;11.00;;
1024;SDS011;501;48.214;11.350;2022-12-07T06:56:28;16.90;;;12.07;;
1024;SDS011;501;48.214;11.350;2022-12-07T06:58:54;17.83;;;12.43;;
1024;SDS011;501;48.214;11.350;2022-12-07T07:01:20;17.60;;;12.30;;
1024;SDS011;501;48.214;11.350;2022-12-07T07:03:46;17.80;;;12.90;;
1024;SDS011;501;48.214;11.350;2022-12-07T07:06:12;15.83;;;10.90;;
1024;SDS011;501;48.214;11.350;2022-12-07T07:08:38;15.37;;;11.83;;
1024;SDS011;501;48.214;11.350;2022-12-07T07:11:04;15.33;;;11.63;;
1024;SDS011;501;48.214;11.350;2022-12-07T07:13:30;15.83;;;11.50;;
1024;SDS011;501;48.214;11.350;2022-12-07T07:15:56;15.07;;;11.50;;
1024;SDS011;501;48.214;11.350;2022-12-07T07:18:22;17.50;;;12.27;;
1024;SDS011;501;48.214;11.350;2022-12-07T07:20:47;17.50;;;12.60;;
1024;SDS011;501;48.214;11.350;2022-12-07T07:23:13;22.20;;;12.90;;
1024;SDS011;501;48.214;11.350;2022-12-07T07:25:39;18.23;;;11.60;;
1024;SDS011;501;48.214;11.350;2022-12-07T07:28:04;17.80;;;12.23;;
1024;SDS011;501;48.214;11.350;2022-12-07T07:30:31;16.63;;;12.23;;
1024;SDS011;501;48.214;11.350;2022-12-07T07:32:57;18.50;;;12.23;;
1024;SDS011;501;48.214;11.350;2022-12-07T07:35:23;21.23;;;12.37;;
1024;SDS011;501;48.214;11.350;2022-12-07T07:37:50;16.83;;;12.37;;
1024;SDS011;501;48.214;11.350;2022-12-07T07:40:15;18.23;;;13.03;;
1024;SDS011;501;48.214;11.350;2022-12-07T07:42:41;20.80;;;12.93;;
1024;SDS011;501;48.214;11.350;2022-12-07T07:45:07;21.17;;;12.57;;
1024;SDS011;501;48.214;11.350;2022-12-07T07:47:33;17.57;;;11.50;;
1024;SDS011;501;48.214;11.350;2022-12-07T07:49:58;19.17;;;12.30;;
1024;SDS011;501;48.214;11.350;2022-12-07T07:52:24;19.23;;;12.97;;
1024;SDS011;501;48.214;11.350;2022-12-07T07:54:50;24.27;;;13.13;;
1024;SDS011;501;48.214;11.350;2022-12-07T07:57:16;17.00;;;12.20;;
1024;SDS011;501;48.214;11.350;2022-12-07T07:59:42;19.17;;;12.20;;
1024;SDS011;501;48.214;11.350;2022-12-07T08:02:09;17.90;;;12.47;;
1024;SDS011;501;48.214;11.350;2022-12-07T08:04:40;18.40;;;11.80;;
1024;SDS011;501;48.214;11.350;2022-12-07T08:07:06;17.53;;;11.73;;
1024;SDS011;501;48.214;11.350;2022-12-07T08:09:31;17.27;;;12.00;;
1024;SDS011;501;48.214;11.350;2022-12-07T08:11:57;18.97;;;11.97;;
1024;SDS011;501;48.214;11.350;2022-12-07T08:14:23;20.87;;;13.47;;
1024;SDS011;501;48.214;11.350;2022-12-07T08:16:49;19.27;;;12.43;;
1024;SDS011;501;48.214;11.350;2022-12-07T08:19:15;16.63;;;11.70;;
1024;SDS011;501;48.214;11.350;2022-12-07T08:21:40;13.63;;;10.97;;
1024;SDS011;501;48.214;11.350;2022-12-07T08:24:06;17.53;;;11.43;;
1024;SDS011;501;48.214;11.350;2022-12-07T08:26:32;18.30;;;12.33;;
1024;SDS011;501;48.214;11.350;2022-12-07T08:28:57;18.00;;;12.03;;
1024;SDS011;501;48.214;11.350;2022-12-07T08:31:23;17.47;;;12.33;;
1024;SDS011;501;48.214;11.350;2022-12-07T08:33:48;19.10;;;11.93;;
1024;SDS011;501;48.214;11.350;2022-12-07T08:36:14;17.53;;;11.50;;
1024;SDS011;501;48.214;11.350;2022-12-07T08:38:41;18.37;;;11.90;;
1024;SDS011;501;48.214;11.350;2022-12-07T08:41:07;18.00;;;11.87;;
1024;SDS011;501;48.214;11.350;2022-12-07T08:43:33;16.47;;;11.60;;
1024;SDS011;501;48.214;11.350;2022-12-07T08:46:10;18.20;;;11.57;;
1024;SDS011;501;48.214;11.350;2022-12-07T08:48:55;16.50;;;11.60;;
1024;SDS011;501;48.214;11.350;2022-12-07T08:51:23;15.87;;;11.77;;
1024;SDS011;501;48.214;11.350;2022-12-07T08:53:49;17.57;;;11.30;;
1024;SDS011;501;48.214;11.350;2022-12-07T08:56:17;17.00;;;11.13;;
1024;SDS011;501;48.214;11.350;2022-12-07T08:58:43;16.00;;;11.03;;
1024;SDS011;501;48.214;11.350;2022-12-07T09:01:09;16.13;;;10.30;;
1024;SDS011;501;48.214;11.350;2022-12-07T09:03:35;15.10;;;10.93;;
1024;SDS011;501;48.214;11.350;2022-12-07T09:06:00;20.43;;;12.07;;
1024;SDS011;501;48.214;11.350;2022-12-07T09:08:28;17.77;;;11.30;;
1024;SDS011;501;48.214;11.350;2022-12-07T09:10:58;16.33;;;11.27;;
1024;SDS011;501;48.214;11.350;2022-12-07T09:13:24;14.97;;;10.83;;
1024;SDS011;501;48.214;11.350;2022-12-07T09:15:49;19.17;;;11.33;;
1024;SDS011;501;48.214;11.350;2022-12-07T09:18:15;17.43;;;11.10;;
1024;SDS011;501;48.214;11.350;2022-12-07T09:20:41;18.43;;;11.30;;
1024;SDS011;501;48.214;11.350;2022-12-07T09:23:06;16.70;;;11.77;;
1024;SDS011;501;48.214;11.350;2022-12-07T09:25:32;18.63;;;10.97;;
1024;SDS011;501;48.214;11.350;2022-12-07T09:27:59;18.13;;;12.10;;
1024;SDS011;501;48.214;11.350;2022-12-07T09:30:25;16.70;;;12.30;;
1024;SDS011;501;48.214;11.350;2022-12-07T09:32:55;15.50;;;10.83;;
1024;SDS011;501;48.214;11.350;2022-12-07T09:35:21;14.40;;;10.00;;
1024;SDS011;501;48.214;11.350;2022-12-07T09:37:48;14.60;;;10.50;;
1024;SDS011;501;48.214;11.350;2022-12-07T09:40:14;14.87;;;9.30;;
1024;SDS011;501;48.214;11.350;2022-12-07T09:42:41;19.33;;;11.43;;
1024;SDS011;501;48.214;11.350;2022-12-07T09:45:21;15.07;;;10.57;;
1024;SDS011;501;48.214;11.350;2022-12-07T09:47:49;15.27;;;10.30;;
1024;SDS011;501;48.214;11.350;2022-12-07T09:50:17;16.77;;;10.63;;
1024;SDS011;501;48.214;11.350;2022-12-07T09:52:46;16.20;;;10.77;;
1024;SDS011;501;48.214;11.350;2022-12-07T09:55:14;18.00;;;11.70;;
1024;SDS011;501;48.214;11.350;2022-12-07T09:57:41;17.07;;;10.77;;
1024;SDS011;501;48.214;11.350;2022-12-07T10:00:16;14.63;;;10.10;;
1024;SDS011;501;48.214;11.350;2022-12-07T10:02:47;16.73;;;10.93;;
1024;SDS011;501;48.214;11.350;2022-12-07T10:05:24;13.07;;;9.70;;
1024;SDS011;501;48.214;11.350;2022-12-07T10:07:57;14.97;;;10.93;;
1024;SDS011;501;48.214;11.350;2022-12-07T10:10:33;14.43;;;10.13;;
1024;SDS011;501;48.214;11.350;2022-12-07T10:13:04;17.17;;;10.67;;
1024;SDS011;501;48.214;11.350;2022-12-07T10:21:00;10.83;;;8.43;;
1024;SDS011;501;48.214;11.350;2022-12-07T10:23:29;14.97;;;10.63;;
1024;SDS011;501;48.214;11.350;2022-12-07T10:25:55;14.13;;;9.40;;
1024;SDS011;501;48.214;11.350;2022-12-07T10:28:21;15.00;;;9.60;;
1024;SDS011;501;48.214;11.350;2022-12-07T10:31:00;12.10;;;8.40;;
1024;SDS011;501;48.214;11.350;2022-12-07T10:33:36;12.63;;;8.40;;
1024;SDS011;501;48.214;11.350;2022-12-07T10:41:28;11.57;;;8.40;;
1024;SDS011;501;48.214;11.350;2022-12-07T10:43:55;12.90;;;8.73;;
1024;SDS011;501;48.214;11.350;2022-12-07T10:46:28;9.90;;;7.47;;
1024;SDS011;501;48.214;11.350;2022-12-07T10:51:45;11.00;;;7.83;;
1024;SDS011;501;48.214;11.350;2022-12-07T10:55:07;11.10;;;7.30;;
1024;SDS011;501;48.214;11.350;2022-12-07T10:59:50;9.83;;;7.03;;
1024;SDS011;501;48.214;11.350;2022-12-07T11:02:25;9.93;;;6.10;;
1024;SDS011;501;48.214;11.350;2022-12-07T11:10:53;9.43;;;6.43;;
1024;SDS011;501;48.214;11.350;2022-12-07T11:34:55;9.60;;;7.53;;
1024;SDS011;501;48.214;11.350;2022-12-07T11:37:25;10.27;;;7.33;;
1024;SDS011;501;48.214;11.350;2022-12-07T11:42:58;10.17;;;7.43;;
1024;SDS011;501;48.214;11.350;2022-12-07T11:45:31;8.53;;;7.33;;
1024;SDS011;501;48.214;11.350;2022-12-07T11:50:50;10.30;;;7.27;;
1024;SDS011;501;48.214;11.350;2022-12-07T11:58:33;11.63;;;8.20;;
1024;SDS011;501;48.214;11.350;2022-12-07T12:03:40;9.40;;;7.20;;
1024;SDS011;501;48.214;11.350;2022-12-07T12:06:26;9.50;;;6.37;;
1024;SDS011;501;48.214;11.350;2022-12-07T12:19:36;9.00;;;6.40;;
1024;SDS011;501;48.214;11.350;2022-12-07T12:22:21;9.23;;;7.00;;
1024;SDS011;501;48.214;11.350;2022-12-07T12:25:35;9.50;;;6.47;;
1024;SDS011;501;48.214;11.350;2022-12-07T12:28:03;9.00;;;6.47;;
1024;SDS011;501;48.214;11.350;2022-12-07T12:30:39;10.13;;;6.73;;
1024;SDS011;501;48.214;11.350;2022-12-07T12:33:16;10.30;;;6.83;;
1024;SDS011;501;48.214;11.350;2022-12-07T12:44:38;8.90;;;6.57;;
1024;SDS011;501;48.214;11.350;2022-12-07T12:46:58;9.30;;;6.20;;
1024;SDS011;501;48.214;11.350;2022-12-07T12:51:52;8.67;;;6.33;;
1024;SDS011;501;48.214;11.350;2022-12-07T12:59:29;8.43;;;6.80;;
1024;SDS011;501;48.214;11.350;2022-12-07T13:10:55;8.13;;;6.27;;
1024;SDS011;501;48.214;11.350;2022-12-07T13:26:17;9.40;;;6.97;;
1024;SDS011;501;48.214;11.350;2022-12-07T13:33:58;11.13;;;7.00;;
1024;SDS011;501;48.214;11.350;2022-12-07T13:36:36;8.70;;;6.70;;
1024;SDS011;501;48.214;11.350;2022-12-07T13:39:19;9.43;;;6.70;;
1024;SDS011;501;48.214;11.350;2022-12-07T13:41:54;10.43;;;7.53;;
1024;SDS011;501;48.214;11.350;2022-12-07T13:44:27;7.60;;;6.03;;
1024;SDS011;501;48.214;11.350;2022-12-07T13:46:55;10.00;;;6.50;;
1024;SDS011;501;48.214;11.350;2022-12-07T13:49:28;9.10;;;6.70;;
1024;SDS011;501;48.214;11.350;2022-12-07T13:52:08;9.10;;;6.53;;
1024;SDS011;501;48.214;11.350;2022-12-07T13:57:21;8.70;;;7.00;;
1024;SDS011;501;48.214;11.350;2022-12-07T13:59:49;11.77;;;7.03;;
1024;SDS011;501;48.214;11.350;2022-12-07T14:02:19;11.80;;;7.57;;
1024;SDS011;501;48.214;11.350;2022-12-07T14:08:03;10.07;;;7.20;;
1024;SDS011;501;48.214;11.350;2022-12-07T14:10:37;14.40;;;8.43;;
1024;SDS011;501;48.214;11.350;2022-12-07T14:15:55;11.13;;;7.40;;
1024;SDS011;501;48.214;11.350;2022-12-07T14:18:30;10.00;;;7.33;;
1024;SDS011;501;48.214;11.350;2022-12-07T14:21:06;10.20;;;7.50;;
1024;SDS011;501;48.214;11.350;2022-12-07T14:23:35;12.43;;;7.90;;
1024;SDS011;501;48.214;11.350;2022-12-07T14:26:13;10.43;;;7.70;;
1024;SDS011;501;48.214;11.350;2022-12-07T14:28:40;10.50;;;6.70;;
1024;SDS011;501;48.214;11.350;2022-12-07T14:31:11;12.17;;;8.63;;
1024;SDS011;501;48.214;11.350;2022-12-07T14:33:42;12.00;;;8.30;;
1024;SDS011;501;48.214;11.350;2022-12-07T14:36:11;11.00;;;7.40;;
1024;SDS011;501;48.214;11.350;2022-12-07T14:38:38;11.97;;;8.13;;
1024;SDS011;501;48.214;11.350;2022-12-07T14:41:04;10.93;;;7.90;;
1024;SDS011;501;48.214;11.350;2022-12-07T14:43:55;11.83;;;7.67;;
1024;SDS011;501;48.214;11.350;2022-12-07T14:46:21;10.97;;;7.37;;
1024;SDS011;501;48.214;11.350;2022-12-07T14:48:46;11.23;;;7.07;;
1024;SDS011;501;48.214;11.350;2022-12-07T14:51:12;10.70;;;8.43;;
1024;SDS011;501;48.214;11.350;2022-12-07T14:53:39;8.63;;;6.73;;
1024;SDS011;501;48.214;11.350;2022-12-07T14:56:14;10.40;;;7.20;;
1024;SDS011;501;48.214;11.350;2022-12-07T14:58:40;10.87;;;7.87;;
1024;SDS011;501;48.214;11.350;2022-12-07T15:01:05;11.97;;;7.93;;
1024;SDS011;501;48.214;11.350;2022-12-07T15:03:31;12.43;;;7.00;;
1024;SDS011;501;48.214;11.350;2022-12-07T15:05:59;9.60;;;6.87;;
1024;SDS011;501;48.214;11.350;2022-12-07T15:08:25;9.13;;;7.20;;
1024;SDS011;501;48.214;11.350;2022-12-07T15:10:50;10.40;;;7.60;;
1024;SDS011;501;48.214;11.350;2022-12-07T15:13:16;12.90;;;7.53;;
1024;SDS011;501;48.214;11.350;2022-12-07T15:16:00;11.03;;;8.03;;
1024;SDS011;501;48.214;11.350;2022-12-07T15:18:26;11.13;;;7.20;;
1024;SDS011;501;48.214;11.350;2022-12-07T15:20:51;12.30;;;7.57;;
1024;SDS011;501;48.214;11.350;2022-12-07T15:23:17;16.30;;;7.97;;
1024;SDS011;501;48.214;11.350;2022-12-07T15:25:43;10.97;;;7.27;;
1024;SDS011;501;48.214;11.350;2022-12-07T15:28:11;9.73;;;7.77;;
1024;SDS011;501;48.214;11.350;2022-12-07T15:30:37;10.90;;;7.77;;
1024;SDS011;501;48.214;11.350;2022-12-07T15:33:07;13.17;;;8.37;;
1024;SDS011;501;48.214;11.350;2022-12-07T15:35:33;11.67;;;7.73;;
1024;SDS011;501;48.214;11.350;2022-12-07T15:38:02;15.20;;;7.80;;
1024;SDS011;501;48.214;11.350;2022-12-07T15:40:28;11.60;;;8.80;;
1024;SDS011;501;48.214;11.350;2022-12-07T15:42:54;13.37;;;8.83;;
1024;SDS011;501;48.214;11.350;2022-12-07T15:45:20;11.00;;;7.30;;
1024;SDS011;501;48.214;11.350;2022-12-07T15:47:45;11.77;;;7.57;;
1024;SDS011;501;48.214;11.350;2022-12-07T15:50:12;8.70;;;7.17;;
1024;SDS011;501;48.214;11.350;2022-12-07T15:52:39;9.83;;;7.67;;
1024;SDS011;501;48.214;11.350;2022-12-07T15:55:08;13.40;;;9.40;;
1024;SDS011;501;48.214;11.350;2022-12-07T15:57:35;14.30;;;7.40;;
1024;SDS011;501;48.214;11.350;2022-12-07T16:00:06;15.70;;;9.30;;
1024;SDS011;501;48.214;11.350;2022-12-07T16:02:33;10.73;;;7.50;;
1024;SDS011;501;48.214;11.350;2022-12-07T16:04:59;11.87;;;9.23;;
1024;SDS011;501;48.214;11.350;2022-12-07T16:07:25;12.23;;;7.70;;
1024;SDS011;501;48.214;11.350;2022-12-07T16:09:53;13.87;;;8.70;;
1024;SDS011;501;48.214;11.350;2022-12-07T16:12:19;12.60;;;8.83;;
1024;SDS011;501;48.214;11.350;2022-12-07T16:14:44;14.53;;;9.87;;
1024;SDS011;501;48.214;11.350;2022-12-07T16:17:10;11.67;;;8.30;;
1024;SDS011;501;48.214;11.350;2022-12-07T16:19:36;12.43;;;8.23;;
1024;SDS011;501;48.214;11.350;2022-12-07T16:22:06;13.93;;;8.47;;
1024;SDS011;501;48.214;11.350;2022-12-07T16:24:31;9.87;;;7.87;;
1024;SDS011;501;48.214;11.350;2022-12-07T16:27:00;11.40;;;7.60;;
1024;SDS011;501;48.214;11.350;2022-12-07T16:29:26;12.27;;;8.67;;
1024;SDS011;501;48.214;11.350;2022-12-07T16:31:51;14.87;;;9.60;;
1024;SDS011;501;48.214;11.350;2022-12-07T16:34:17;11.60;;;9.00;;
1024;SDS011;501;48.214;11.350;2022-12-07T16:36:43;15.40;;;11.00;;
1024;SDS011;501;48.214;11.350;2022-12-07T16:39:09;18.83;;;11.73;;
1024;SDS011;501;48.214;11.350;2022-12-07T16:41:35;21.97;;;14.03;;
1024;SDS011;501;48.214;11.350;2022-12-07T16:44:02;16.63;;;11.97;;
1024;SDS011;501;48.214;11.350;2022-12-07T16:46:32;13.63;;;10.60;;
1024;SDS011;501;48.214;11.350;2022-12-07T16:48:58;16.07;;;11.30;;
1024;SDS011;501;48.214;11.350;2022-12-07T16:51:24;17.23;;;11.53;;
1024;SDS011;501;48.214;11.350;2022-12-07T16:53:50;17.43;;;10.23;;
1024;SDS011;501;48.214;11.350;2022-12-07T16:56:18;19.27;;;11.97;;
1024;SDS011;501;48.214;11.350;2022-12-07T16:58:43;17.93;;;13.50;;
1024;SDS011;501;48.214;11.350;2022-12-07T17:01:12;21.53;;;12.97;;
1024;SDS011;501;48.214;11.350;2022-12-07T17:03:39;14.83;;;11.67;;
1024;SDS011;501;48.214;11.350;2022-12-07T17:06:27;18.40;;;13.23;;
1024;SDS011;501;48.214;11.350;2022-12-07T17:08:54;16.80;;;11.50;;
1024;SDS011;501;48.214;11.350;2022-12-07T17:11:22;15.90;;;11.47;;
1024;SDS011;501;48.214;11.350;2022-12-07T17:13:50;19.53;;;11.90;;
1024;SDS011;501;48.214;11.350;2022-12-07T17:16:36;14.90;;;11.30;;
1024;SDS011;501;48.214;11.350;2022-12-07T17:19:05;19.20;;;12.13;;
1024;SDS011;501;48.214;11.350;2022-12-07T17:21:32;20.30;;;11.40;;
1024;SDS011;501;48.214;11.350;2022-12-07T17:23:58;17.23;;;11.83;;
1024;SDS011;501;48.214;11.350;2022-12-07T17:26:25;17.00;;;12.43;;
1024;SDS011;501;48.214;11.350;2022-12-07T17:28:52;14.53;;;11.50;;
1024;SDS011;501;48.214;11.350;2022-12-07T17:31:19;20.37;;;13.07;;
1024;SDS011;501;48.214;11.350;2022-12-07T17:33:46;17.33;;;12.73;;
1024;SDS011;501;48.214;11.350;2022-12-07T17:36:16;18.10;;;12.20;;
1024;SDS011;501;48.214;11.350;2022-12-07T17:38:44;17.83;;;13.20;;
1024;SDS011;501;48.214;11.350;2022-12-07T17:43:59;23.73;;;14.30;;
1024;SDS011;501;48.214;11.350;2022-12-07T17:46:26;23.63;;;15.70;;
1024;SDS011;501;48.214;11.350;2022-12-07T17:48:55;25.77;;;15.80;;
1024;SDS011;501;48.214;11.350;2022-12-07T17:51:21;28.47;;;16.80;;